Time;durP1;ratioP1;P1;durP2;ratioP2;P2;SDS_P1;SDS_P2;PMS_P1;PMS_P2;Temp;Humidity;BMP_temperature;BMP_pressure;BME280_temperature;BME280_humidity;BME280_pressure;Samples;Min_cycle;Max_cycle;Signal;HPM_P1;HPM_P2
2022/09/16 00:01:38;;;;;;;0.73;0.60;;;;;;;;;;5154409;27;20268;-91
2022/09/16 00:04:22;;;;;;;0.85;0.68;;;;;;;;;;5138784;27;20118;-90
2022/09/16 00:07:07;;;;;;;0.65;0.60;;;;;;;;;;5154696;27;20118;-91
2022/09/16 00:09:51;;;;;;;1.92;1.02;;;;;;;;;;5139352;27;20505;-91
2022/09/16 00:12:36;;;;;;;0.70;0.70;;;;;;;;;;5138538;27;20045;-91
2022/09/16 00:15:20;;;;;;;0.73;0.60;;;;;;;;;;5129548;27;20066;-90
2022/09/16 00:18:05;;;;;;;0.65;0.60;;;;;;;;;;5133936;27;20062;-92
2022/09/16 00:20:50;;;;;;;0.93;0.60;;;;;;;;;;5138157;27;20088;-90
2022/09/16 00:23:35;;;;;;;0.40;0.40;;;;;;;;;;5131931;27;20437;-91
2022/09/16 00:26:20;;;;;;;1.20;0.60;;;;;;;;;;5118628;27;20084;-90
2022/09/16 00:29:05;;;;;;;0.75;0.60;;;;;;;;;;5138551;27;20076;-89
2022/09/16 00:31:49;;;;;;;3.25;0.60;;;;;;;;;;5153929;27;20041;-89
2022/09/16 00:34:34;;;;;;;2.45;0.60;;;;;;;;;;5153257;27;20056;-87
2022/09/16 00:37:18;;;;;;;0.60;0.60;;;;;;;;;;5154268;27;20042;-87
2022/09/16 00:40:04;;;;;;;1.35;0.80;;;;;;;;;;5152781;27;20038;-87
2022/09/16 00:42:48;;;;;;;3.80;0.70;;;;;;;;;;5143272;27;20038;-88
2022/09/16 00:45:33;;;;;;;0.50;0.50;;;;;;;;;;5153351;27;20045;-88
2022/09/16 00:48:22;;;;;;;2.25;0.60;;;;;;;;;;5124735;27;20551;-87
2022/09/16 00:51:08;;;;;;;0.85;0.60;;;;;;;;;;5141435;27;20079;-87
2022/09/16 00:53:56;;;;;;;0.88;0.60;;;;;;;;;;5149370;27;20037;-87
2022/09/16 00:56:42;;;;;;;0.90;0.60;;;;;;;;;;5140139;27;20038;-87
2022/09/16 00:59:29;;;;;;;2.00;0.60;;;;;;;;;;5141062;27;20087;-88
2022/09/16 01:02:16;;;;;;;0.57;0.55;;;;;;;;;;5153709;27;20086;-88
2022/09/16 01:05:03;;;;;;;0.50;0.50;;;;;;;;;;5138318;27;20087;-88
2022/09/16 01:07:49;;;;;;;0.40;0.40;;;;;;;;;;5153349;27;20725;-86
2022/09/16 01:10:33;;;;;;;0.52;0.50;;;;;;;;;;5138642;27;20083;-86
2022/09/16 01:13:18;;;;;;;2.00;0.80;;;;;;;;;;5153773;27;20543;-86
2022/09/16 01:16:16;;;;;;;0.73;0.60;;;;;;;;;;5153795;27;20398;-85
2022/09/16 01:19:09;;;;;;;1.58;0.70;;;;;;;;;;5153571;27;20118;-85
2022/09/16 01:22:15;;;;;;;0.50;0.50;;;;;;;;;;5153156;27;20037;-85
2022/09/16 01:25:40;;;;;;;1.73;0.80;;;10.80;99.90;;;;;;5153351;27;20084;-85
2022/09/16 01:28:24;;;;;;;2.15;0.90;;;;;;;;;;5128871;27;20104;-86
2022/09/16 01:31:28;;;;;;;2.22;0.80;;;;;;;;;;5137690;27;20033;-85
2022/09/16 01:34:31;;;;;;;2.03;0.63;;;;;;;;;;5153870;27;20118;-85
2022/09/16 01:37:33;;;;;;;2.28;0.80;;;;;;;;;;5126298;27;20041;-85
2022/09/16 01:40:24;;;;;;;1.67;0.70;;;;;;;;;;5153328;27;20037;-86
2022/09/16 01:43:24;;;;;;;1.67;0.73;;;;;;;;;;5137611;27;20034;-85
2022/09/16 01:46:09;;;;;;;1.73;0.70;;;;;;;;;;5154066;27;20447;-86
2022/09/16 01:48:53;;;;;;;2.05;0.75;;;;;;;;;;5156617;27;20111;-85
2022/09/16 01:51:45;;;;;;;1.05;0.60;;;;;;;;;;5141111;27;20505;-86
2022/09/16 01:54:49;;;;;;;1.55;0.85;;;;;;;;;;5141640;27;20037;-86
2022/09/16 01:57:33;;;;;;;3.50;0.77;;;;;;;;;;5157262;27;20113;-86
2022/09/16 02:00:18;;;;;;;1.35;0.80;;;;;;;;;;5157033;27;20117;-86
2022/09/16 02:03:14;;;;;;;3.33;0.88;;;;;;;;;;5157368;27;20125;-86
2022/09/16 02:06:10;;;;;;;2.58;0.90;;;;;;;;;;5156581;27;20029;-86
2022/09/16 02:09:01;;;;;;;3.92;1.08;;;10.50;99.90;;;;;;5141701;27;20127;-86
2022/09/16 02:11:47;;;;;;;6.82;1.48;;;;;;;;;;5156449;27;20497;-86
2022/09/16 02:14:37;;;;;;;3.15;0.98;;;;;;;;;;5156927;27;20069;-86
2022/09/16 02:17:23;;;;;;;3.60;1.00;;;;;;;;;;5137489;27;20508;-86
2022/09/16 02:20:11;;;;;;;3.47;1.10;;;10.50;99.90;;;;;;5148823;27;20120;-86
2022/09/16 02:22:59;;;;;;;2.13;1.10;;;;;;;;;;5156020;27;20513;-85
2022/09/16 02:25:45;;;;;;;9.52;1.40;;;;;;;;;;5156161;27;20550;-86
2022/09/16 02:28:32;;;;;;;4.10;1.10;;;;;;;;;;5134291;27;20105;-86
2022/09/16 02:31:20;;;;;;;4.97;1.40;;;;;;;;;;5151746;27;20045;-85
2022/09/16 02:34:09;;;;;;;9.50;1.63;;;;;;;;;;5156262;27;20034;-86
2022/09/16 02:36:56;;;;;;;6.82;2.05;;;;;;;;;;5155817;27;20034;-85
2022/09/16 02:39:43;;;;;;;7.32;1.52;;;;;;;;;;5156045;27;20041;-87
2022/09/16 02:42:28;;;;;;;7.18;1.77;;;;;;;;;;5156519;27;20493;-86
2022/09/16 02:45:13;;;;;;;9.88;2.33;;;;;;;;;;5140561;27;20041;-85
2022/09/16 02:48:04;;;;;;;5.43;1.65;;;;;;;;;;5155649;27;20053;-85
2022/09/16 02:51:01;;;;;;;6.70;1.60;;;;;;;;;;5139999;27;20489;-84
2022/09/16 02:53:48;;;;;;;5.68;1.55;;;;;;;;;;5139764;27;20134;-84
2022/09/16 02:56:35;;;;;;;4.90;1.60;;;;;;;;;;5140418;27;20083;-83
2022/09/16 02:59:20;;;;;;;4.95;1.25;;;;;;;;;;5144146;27;20046;-84
2022/09/16 03:02:04;;;;;;;4.30;1.05;;;;;;;;;;5155301;27;20076;-84
2022/09/16 03:04:49;;;;;;;6.30;1.25;;;;;;;;;;5139688;27;20038;-84
2022/09/16 03:07:33;;;;;;;3.00;1.10;;;;;;;;;;5141422;27;20034;-84
2022/09/16 03:10:18;;;;;;;5.75;1.48;;;;;;;;;;5155647;27;20163;-84
2022/09/16 03:13:11;;;;;;;3.35;1.35;;;;;;;;;;5155340;27;20063;-84
2022/09/16 03:16:13;;;;;;;5.72;1.88;;;;;;;;;;5155193;27;20029;-84
2022/09/16 03:19:24;;;;;;;3.28;1.00;;;10.30;99.90;;;;;;5154943;27;20042;-84
2022/09/16 03:22:21;;;;;;;5.30;1.48;;;;;;;;;;5154913;27;20042;-85
2022/09/16 03:25:24;;;;;;;6.75;1.17;;;;;;;;;;5155017;27;20150;-85
2022/09/16 03:28:17;;;;;;;3.45;1.00;;;10.30;99.90;;;;;;5154716;27;20858;-86
2022/09/16 03:31:04;;;;;;;4.05;1.20;;;;;;;;;;5139307;27;20080;-86
2022/09/16 03:33:48;;;;;;;3.50;1.23;;;;;;;;;;5142904;27;20034;-85
2022/09/16 03:36:35;;;;;;;2.67;1.27;;;;;;;;;;5155169;27;20095;-86
2022/09/16 03:39:21;;;;;;;3.30;0.98;;;;;;;;;;5155374;27;20131;-85
2022/09/16 03:42:07;;;;;;;6.53;1.27;;;;;;;;;;5139198;27;20069;-84
2022/09/16 03:44:51;;;;;;;4.32;1.00;;;;;;;;;;5139256;27;20037;-85
2022/09/16 03:47:36;;;;;;;2.25;1.15;;;;;;;;;;5142998;27;20061;-85
2022/09/16 03:50:21;;;;;;;2.92;1.20;;;;;;;;;;5154848;27;20053;-85
2022/09/16 03:53:05;;;;;;;2.17;1.40;;;;;;;;;;5154502;27;20038;-85
2022/09/16 03:55:50;;;;;;;2.13;0.98;;;;;;;;;;5154997;27;20080;-85
2022/09/16 03:58:34;;;;;;;3.90;1.13;;;;;;;;;;5154708;27;20538;-85
2022/09/16 04:01:20;;;;;;;2.38;1.42;;;;;;;;;;5154788;27;20037;-85
2022/09/16 04:04:05;;;;;;;1.85;1.02;;;;;;;;;;5154139;27;20079;-85
2022/09/16 04:06:49;;;;;;;2.58;0.95;;;;;;;;;;5154734;27;20038;-85
2022/09/16 04:09:36;;;;;;;0.68;0.60;;;;;;;;;;5138148;27;20091;-85
2022/09/16 04:12:20;;;;;;;1.55;0.75;;;;;;;;;;5151402;27;20164;-84
2022/09/16 04:15:05;;;;;;;1.95;0.82;;;;;;;;;;5145500;27;20061;-87
2022/09/16 04:17:50;;;;;;;1.10;0.65;;;;;;;;;;5154758;27;20037;-86
2022/09/16 04:20:34;;;;;;;0.93;0.60;;;;;;;;;;5138743;27;20090;-86
2022/09/16 04:23:19;;;;;;;1.25;0.65;;;;;;;;;;5138215;27;20038;-86
2022/09/16 04:26:03;;;;;;;0.52;0.52;;;;;;;;;;5153327;27;20046;-86
2022/09/16 04:28:48;;;;;;;1.17;0.70;;;;;;;;;;5142919;27;20061;-87
2022/09/16 04:31:32;;;;;;;0.82;0.60;;;;;;;;;;5154373;27;20324;-86
2022/09/16 04:34:17;;;;;;;0.70;0.60;;;;;;;;;;5138153;27;20062;-86
2022/09/16 04:37:01;;;;;;;0.60;0.60;;;;;;;;;;5153697;27;20069;-87
2022/09/16 04:39:46;;;;;;;0.52;0.47;;;;;;;;;;5154077;27;20060;-87
2022/09/16 04:42:30;;;;;;;0.50;0.50;;;;;;;;;;5138458;27;20080;-87
2022/09/16 04:45:15;;;;;;;1.23;0.60;;;;;;;;;;5153372;27;20118;-86
2022/09/16 04:47:59;;;;;;;0.50;0.50;;;;;;;;;;5140521;27;20536;-87
2022/09/16 04:50:44;;;;;;;0.55;0.55;;;;;;;;;;5141325;27;20034;-87
2022/09/16 04:53:28;;;;;;;0.60;0.60;;;;;;;;;;5153774;27;20063;-86
2022/09/16 04:56:17;;;;;;;0.50;0.50;;;;;;;;;;5153454;27;20038;-86
2022/09/16 04:59:03;;;;;;;0.70;0.50;;;;;;;;;;5153154;27;20497;-87
2022/09/16 05:01:48;;;;;;;0.50;0.50;;;;;;;;;;5154184;27;20054;-86
2022/09/16 05:04:32;;;;;;;0.50;0.50;;;;;;;;;;5137960;27;20445;-85
2022/09/16 05:07:16;;;;;;;1.75;0.80;;;;;;;;;;5137588;27;20041;-85
2022/09/16 05:10:01;;;;;;;0.52;0.52;;;;;;;;;;5138080;27;20527;-86
2022/09/16 05:12:50;;;;;;;0.55;0.55;;;;;;;;;;5153607;27;20042;-85
2022/09/16 05:15:35;;;;;;;0.50;0.50;;;;;;;;;;5153750;27;20493;-85
2022/09/16 05:18:19;;;;;;;0.55;0.50;;;;;;;;;;5153278;27;20459;-85
2022/09/16 05:21:05;;;;;;;0.40;0.40;;;;;;;;;;5155466;27;20079;-86
2022/09/16 05:23:53;;;;;;;3.20;0.73;;;;;;;;;;5158011;27;20056;-85
2022/09/16 05:26:40;;;;;;;0.40;0.40;;;9.50;99.90;;;;;;5157754;27;20026;-85
2022/09/16 05:29:28;;;;;;;0.50;0.50;;;;;;;;;;5157058;27;20113;-85
2022/09/16 05:32:12;;;;;;;1.17;0.68;;;;;;;;;;5154784;27;20179;-85
2022/09/16 05:34:57;;;;;;;0.50;0.50;;;;;;;;;;5157664;27;20490;-85
2022/09/16 05:37:42;;;;;;;0.40;0.40;;;;;;;;;;5157398;27;20074;-85
2022/09/16 05:40:27;;;;;;;1.00;0.57;;;;;;;;;;5141313;27;20086;-86
2022/09/16 05:43:12;;;;;;;0.50;0.50;;;;;;;;;;5152321;27;20108;-85
2022/09/16 05:45:57;;;;;;;1.38;0.50;;;;;;;;;;5141579;27;20079;-85
2022/09/16 05:48:42;;;;;;;0.85;0.65;;;;;;;;;;5156964;27;20072;-85
2022/09/16 05:51:26;;;;;;;0.73;0.40;;;;;;;;;;5156723;27;20954;-85
2022/09/16 05:54:11;;;;;;;1.17;0.50;;;;;;;;;;5156020;27;20422;-86
2022/09/16 05:56:56;;;;;;;0.60;0.60;;;;;;;;;;5156849;27;20042;-85
2022/09/16 05:59:41;;;;;;;0.57;0.57;;;;;;;;;;5157098;27;20440;-85
2022/09/16 06:02:26;;;;;;;1.20;0.50;;;;;;;;;;5140803;27;20454;-86
2022/09/16 06:05:10;;;;;;;0.43;0.43;;;;;;;;;;5156656;27;20402;-87
2022/09/16 06:07:56;;;;;;;0.50;0.50;;;;;;;;;;5139235;27;20091;-85
2022/09/16 06:10:41;;;;;;;0.85;0.70;;;;;;;;;;5156494;27;20429;-87
2022/09/16 06:13:26;;;;;;;0.55;0.50;;;;;;;;;;5140743;27;20037;-86
2022/09/16 06:16:13;;;;;;;0.50;0.50;;;;;;;;;;5125023;27;20038;-89
2022/09/16 06:18:58;;;;;;;0.65;0.65;;;;;;;;;;5128038;27;20058;-87
2022/09/16 06:21:46;;;;;;;0.50;0.50;;;;;;;;;;5156640;27;20083;-92
2022/09/16 06:24:31;;;;;;;0.40;0.40;;;;;;;;;;5156172;27;20061;-85
2022/09/16 06:27:16;;;;;;;0.75;0.50;;;;;;;;;;5146165;27;20080;-85
2022/09/16 06:30:00;;;;;;;1.08;0.75;;;;;;;;;;5140814;27;20437;-84
2022/09/16 06:32:45;;;;;;;1.08;0.77;;;;;;;;;;5140038;27;20055;-83
2022/09/16 06:35:29;;;;;;;1.42;0.75;;;;;;;;;;5140277;27;20034;-84
2022/09/16 06:38:14;;;;;;;1.95;0.95;;;;;;;;;;5155901;27;20560;-86
2022/09/16 06:41:03;;;;;;;1.73;0.70;;;;;;;;;;5151643;27;20489;-85
2022/09/16 06:43:50;;;;;;;2.78;0.70;;;;;;;;;;5156031;27;20488;-84
2022/09/16 06:46:34;;;;;;;0.93;0.70;;;;;;;;;;5140118;27;20631;-85
2022/09/16 06:49:19;;;;;;;1.25;0.77;;;;;;;;;;5155885;27;20073;-86
2022/09/16 06:52:03;;;;;;;1.48;0.88;;;;;;;;;;5142733;27;20497;-85
2022/09/16 06:54:49;;;;;;;0.68;0.63;;;;;;;;;;5156144;27;20390;-85
2022/09/16 06:57:34;;;;;;;1.00;0.63;;;;;;;;;;5145041;27;20125;-85
2022/09/16 07:00:18;;;;;;;2.65;0.73;;;;;;;;;;5154258;27;20095;-87
2022/09/16 07:03:03;;;;;;;2.25;1.13;;;;;;;;;;5140386;27;20138;-85
2022/09/16 07:05:55;;;;;;;4.00;0.70;;;;;;;;;;5143880;27;20107;-85
2022/09/16 07:08:40;;;;;;;10.07;1.38;;;;;;;;;;5140566;27;20057;-85
2022/09/16 07:11:25;;;;;;;3.13;0.63;;;;;;;;;;5155325;27;20436;-86
2022/09/16 07:14:10;;;;;;;2.83;0.82;;;;;;;;;;5133259;27;20034;-85
2022/09/16 07:16:55;;;;;;;1.95;0.80;;;;;;;;;;5151075;27;20061;-85
2022/09/16 07:19:41;;;;;;;1.20;0.75;;;;;;;;;;5155149;27;20042;-85
2022/09/16 07:22:25;;;;;;;1.00;0.75;;;;;;;;;;5136232;27;20033;-86
2022/09/16 07:25:10;;;;;;;1.30;0.90;;;;;;;;;;5142250;27;20089;-86
2022/09/16 07:27:54;;;;;;;2.22;0.80;;;;;;;;;;5155257;27;20427;-86
2022/09/16 07:30:39;;;;;;;0.68;0.60;;;;;;;;;;5128740;27;20052;-86
2022/09/16 07:33:24;;;;;;;2.67;0.70;;;;;;;;;;5148606;27;20406;-87
2022/09/16 07:36:10;;;;;;;2.35;0.90;;;;;;;;;;5133068;27;20099;-86
2022/09/16 07:38:57;;;;;;;4.53;1.17;;;;;;;;;;5139669;27;20398;-86
2022/09/16 07:41:43;;;;;;;1.65;0.90;;;;;;;;;;5140058;27;20847;-86
2022/09/16 07:44:27;;;;;;;2.88;1.00;;;;;;;;;;5154519;27;20096;-87
2022/09/16 07:47:12;;;;;;;2.80;1.10;;;;;;;;;;5139674;27;20490;-87
2022/09/16 07:49:56;;;;;;;0.70;0.70;;;;;;;;;;5139294;27;20050;-87
2022/09/16 07:52:41;;;;;;;1.25;0.73;;;;;;;;;;5138534;27;20037;-87
2022/09/16 07:55:28;;;;;;;0.88;0.50;;;;;;;;;;5138845;27;20038;-89
2022/09/16 07:58:12;;;;;;;0.95;0.60;;;;;;;;;;5124686;27;20462;-87
2022/09/16 08:00:57;;;;;;;1.67;0.93;;;;;;;;;;5155056;27;20030;-88
2022/09/16 08:03:42;;;;;;;1.98;0.70;;;;;;;;;;5138386;27;20500;-88
2022/09/16 08:06:31;;;;;;;0.75;0.60;;;;;;;;;;5109722;27;20045;-88
2022/09/16 08:09:16;;;;;;;1.25;1.15;;;;;;;;;;5118299;27;20096;-90
2022/09/16 08:12:01;;;;;;;0.73;0.60;;;;;;;;;;5148426;27;20490;-89
2022/09/16 08:14:48;;;;;;;1.58;0.90;;;;;;;;;;5146370;27;20061;-90
2022/09/16 08:17:33;;;;;;;1.50;0.90;;;;;;;;;;5138328;27;20517;-89
2022/09/16 08:20:18;;;;;;;1.38;0.80;;;;;;;;;;5138709;27;20034;-91
2022/09/16 08:23:02;;;;;;;4.22;1.00;;;;;;;;;;5138813;27;20402;-91
2022/09/16 08:25:47;;;;;;;2.63;0.90;;;;;;;;;;5153840;27;20034;-93
2022/09/16 08:28:34;;;;;;;1.50;0.80;;;;;;;;;;5153865;27;20045;-93
2022/09/16 08:31:19;;;;;;;1.05;0.70;;;;;;;;;;5124218;27;20491;-92
2022/09/16 08:34:06;;;;;;;0.73;0.60;;;;;;;;;;5154527;27;20036;-93
2022/09/16 08:36:50;;;;;;;1.50;0.60;;;;;;;;;;5148357;27;20072;-92
2022/09/16 08:39:35;;;;;;;1.15;0.85;;;;;;;;;;5131574;27;20036;-92
2022/09/16 08:42:23;;;;;;;2.13;0.68;;;;;;;;;;5138642;27;20049;-94
2022/09/16 08:45:19;;;;;;;1.10;0.60;;;;;;;;;;5131349;27;20037;-92
2022/09/16 08:48:07;;;;;;;1.23;0.75;;;;;;;;;;5138194;27;20099;-93
2022/09/16 08:50:52;;;;;;;2.17;0.77;;;;;;;;;;5137882;27;20320;-91
2022/09/16 08:54:00;;;;;;;2.78;0.75;;;;;;;;;;5127751;27;20100;-92
2022/09/16 08:56:48;;;;;;;1.67;0.70;;;;;;;;;;5127289;27;20042;-93
2022/09/16 08:59:38;;;;;;;0.88;0.75;;;;;;;;;;5139333;27;20129;-92
2022/09/16 09:02:32;;;;;;;3.25;0.70;;;;;;;;;;5129031;27;20456;-92
2022/09/16 09:05:20;;;;;;;4.03;0.90;;;;;;;;;;5137027;27;20393;-89
2022/09/16 09:08:06;;;;;;;2.15;0.80;;;;;;;;;;5137758;27;20050;-89
2022/09/16 09:11:10;;;;;;;1.55;0.80;;;;;;;;;;5137609;27;20034;-94
2022/09/16 09:14:20;;;;;;;1.38;0.77;;;;;;;;;;5135478;27;20046;-90
2022/09/16 09:17:11;;;;;;;2.20;0.65;;;;;;;;;;5135170;27;20047;-89
2022/09/16 09:20:05;;;;;;;1.90;0.60;;;;;;;;;;5138257;27;20038;-89
2022/09/16 09:23:08;;;;;;;2.08;0.60;;;;;;;;;;5141188;27;20536;-88
2022/09/16 09:26:12;;;;;;;2.20;0.60;;;;;;;;;;5136638;27;20111;-91
2022/09/16 09:29:16;;;;;;;1.00;0.60;;;;;;;;;;5126407;28;20038;-90
2022/09/16 09:32:06;;;;;;;0.93;0.60;;;;;;;;;;5116968;28;20486;-89
2022/09/16 09:35:03;;;;;;;1.15;0.60;;;;;;;;;;5133367;27;20038;-91
2022/09/16 09:38:04;;;;;;;3.08;0.70;;;;;;;;;;5137667;27;20038;-93
2022/09/16 09:40:55;;;;;;;2.83;0.70;;;;;;;;;;5116853;28;20079;-91
2022/09/16 09:43:55;;;;;;;0.95;0.60;;;;;;;;;;5136110;27;20033;-92
2022/09/16 09:46:41;;;;;;;2.05;0.73;;;;;;;;;;5136714;27;20069;-90
2022/09/16 09:49:26;;;;;;;2.85;0.80;;;;;;;;;;5137040;27;20505;-88
2022/09/16 09:52:38;;;;;;;5.07;1.00;;;;;;;;;;5131764;27;20029;-90
2022/09/16 09:55:24;;;;;;;0.70;0.40;;;;;;;;;;5102739;27;20080;-90
2022/09/16 09:58:19;;;;;;;2.40;0.60;;;;;;;;;;5130440;27;20033;-93
2022/09/16 10:01:08;;;;;;;2.80;0.60;;;;;;;;;;5141753;27;20095;-93
2022/09/16 10:03:54;;;;;;;1.88;0.65;;;;;;;;;;5134412;27;20038;-93
2022/09/16 10:06:40;;;;;;;0.88;0.60;;;;;;;;;;5135348;27;20394;-90
2022/09/16 10:09:25;;;;;;;4.15;0.68;;;;;;;;;;5140052;27;20042;-91
2022/09/16 10:12:10;;;;;;;2.35;0.98;;;;;;;;;;5156580;27;20036;-90
2022/09/16 10:14:54;;;;;;;4.13;0.88;;;;;;;;;;5134591;27;20068;-90
2022/09/16 10:17:39;;;;;;;1.23;0.57;;;;;;;;;;5130688;27;20548;-88
2022/09/16 10:20:33;;;;;;;3.25;0.90;;;;;;;;;;5141501;27;20436;-87
2022/09/16 10:23:21;;;;;;;1.20;0.57;;;;;;;;;;5141906;27;20037;-91
2022/09/16 10:26:19;;;;;;;1.15;0.57;;;;;;;;;;5142089;27;20061;-93
2022/09/16 10:29:14;;;;;;;7.07;0.80;;;;;;;;;;5142290;27;20050;-90
2022/09/16 10:32:02;;;;;;;1.08;0.70;;;;;;;;;;5134438;27;20035;-92
2022/09/16 10:34:47;;;;;;;3.13;0.73;;;;;;;;;;5152592;27;20084;-90
2022/09/16 10:37:32;;;;;;;1.80;0.68;;;;;;;;;;5156559;27;20160;-89
2022/09/16 10:40:18;;;;;;;1.48;0.98;;;;;;;;;;5155441;27;20492;-91
2022/09/16 10:43:04;;;;;;;2.63;1.17;;;;;;;;;;5139211;27;20443;-93
2022/09/16 10:45:50;;;;;;;1.08;0.60;;;;;;;;;;5156596;27;20041;-85
2022/09/16 10:48:36;;;;;;;0.65;0.50;;;;;;;;;;5155906;27;20061;-87
2022/09/16 10:51:25;;;;;;;1.92;0.60;;;;;;;;;;5129376;27;20038;-87
2022/09/16 10:54:21;;;;;;;1.65;0.70;;;;;;;;;;5141274;27;20112;-84
2022/09/16 10:57:24;;;;;;;1.02;0.55;;;;;;;;;;5139103;27;20496;-85
2022/09/16 11:00:19;;;;;;;3.92;0.85;;;;;;;;;;5155028;27;20870;-85
2022/09/16 11:03:10;;;;;;;3.80;0.80;;;;;;;;;;5153184;27;20064;-83
2022/09/16 11:06:22;;;;;;;1.63;1.00;;;16.00;99.90;;;;;;5155456;27;20075;-89
2022/09/16 11:09:13;;;;;;;1.70;0.75;;;;;;;;;;5136712;27;20142;-88
2022/09/16 11:12:01;;;;;;;0.95;0.60;;;;;;;;;;5147856;27;20110;-88
2022/09/16 11:14:51;;;;;;;1.30;0.70;;;;;;;;;;5155035;27;20118;-86
2022/09/16 11:17:48;;;;;;;1.10;0.70;;;;;;;;;;5155013;27;20398;-86
2022/09/16 11:20:47;;;;;;;0.63;0.52;;;;;;;;;;5132654;27;20114;-90
2022/09/16 11:23:35;;;;;;;2.38;1.08;;;;;;;;;;5151206;27;20078;-90
2022/09/16 11:26:39;;;;;;;0.50;0.50;;;;;;;;;;5147603;27;20033;-90
2022/09/16 11:29:36;;;;;;;3.80;0.63;;;;;;;;;;5133420;27;20053;-92
2022/09/16 11:32:35;;;;;;;3.20;0.77;;;;;;;;;;5155802;27;20143;-90
2022/09/16 11:35:33;;;;;;;3.28;0.88;;;;;;;;;;5155762;27;20490;-89
2022/09/16 11:38:24;;;;;;;1.55;0.70;;;;;;;;;;5129306;27;20057;-90
2022/09/16 11:41:09;;;;;;;3.13;0.60;;;;;;;;;;5147528;27;20075;-88
2022/09/16 11:43:54;;;;;;;1.27;0.60;;;;;;;;;;5155380;27;20382;-88
2022/09/16 11:46:42;;;;;;;0.75;0.60;;;;;;;;;;5155223;27;20038;-91
2022/09/16 11:49:38;;;;;;;1.30;0.60;;;;;;;;;;5145958;27;20049;-93
2022/09/16 11:52:38;;;;;;;2.20;0.57;;;;;;;;;;5129525;27;20084;-91
2022/09/16 11:55:25;;;;;;;1.55;0.95;;;;;;;;;;5139548;27;20075;-87
2022/09/16 11:58:29;;;;;;;2.83;0.85;;;;;;;;;;5147458;27;20042;-89
2022/09/16 12:01:18;;;;;;;0.95;0.60;;;;;;;;;;5154418;27;20037;-91
2022/09/16 12:04:10;;;;;;;3.15;0.82;;;;;;;;;;5154478;27;20399;-91
2022/09/16 12:07:02;;;;;;;1.83;0.60;;;;;;;;;;5129251;27;20459;-89
2022/09/16 12:10:13;;;;;;;2.75;0.90;;;16.20;99.90;;;;;;5129423;27;20500;-89
2022/09/16 12:13:05;;;;;;;0.60;0.60;;;;;;;;;;5154691;27;20037;-90
2022/09/16 12:15:57;;;;;;;3.63;0.77;;;;;;;;;;5154508;27;20394;-88
2022/09/16 12:18:44;;;;;;;3.45;0.88;;;;;;;;;;5148276;27;20046;-91
2022/09/16 12:21:35;;;;;;;4.82;0.88;;;;;;;;;;5132996;27;20126;-93
2022/09/16 12:24:41;;;;;;;2.90;0.70;;;17.70;99.90;;;;;;5137036;27;20121;-91
2022/09/16 12:27:36;;;;;;;3.17;0.88;;;;;;;;;;5133283;27;20400;-91
2022/09/16 12:30:24;;;;;;;2.90;0.80;;;;;;;;;;5132809;27;20042;-91
2022/09/16 12:33:16;;;;;;;2.38;0.80;;;;;;;;;;5132780;27;20110;-88
2022/09/16 12:36:06;;;;;;;1.27;0.60;;;;;;;;;;5154094;27;20038;-91
2022/09/16 12:38:51;;;;;;;2.85;0.82;;;;;;;;;;5152270;27;20076;-92
2022/09/16 12:41:50;;;;;;;2.53;0.55;;;;;;;;;;5153824;27;20079;-87
2022/09/16 12:44:45;;;;;;;1.80;0.70;;;;;;;;;;5153982;27;20084;-88
2022/09/16 12:47:39;;;;;;;1.90;0.90;;;;;;;;;;5137620;27;20075;-87
2022/09/16 12:50:36;;;;;;;2.88;1.00;;;;;;;;;;5153166;27;20041;-88
2022/09/16 12:54:16;;;;;;;2.33;0.80;;;17.10;99.90;;;;;;5153248;27;20061;-90
2022/09/16 12:57:03;;;;;;;0.90;0.68;;;;;;;;;;5153581;27;20086;-87
2022/09/16 12:59:57;;;;;;;2.50;1.00;;;;;;;;;;5154053;27;20061;-89
2022/09/16 13:03:02;;;;;;;2.08;0.90;;;;;;;;;;5153704;27;20888;-89
2022/09/16 13:05:52;;;;;;;5.93;1.27;;;;;;;;;;5137345;27;20095;-88
2022/09/16 13:08:37;;;;;;;5.47;1.02;;;;;;;;;;5153159;27;20030;-89
2022/09/16 13:11:27;;;;;;;4.43;1.10;;;;;;;;;;5150981;27;20053;-90
2022/09/16 13:14:32;;;;;;;4.00;1.10;;;;;;;;;;5152302;27;20112;-90
2022/09/16 13:17:36;;;;;;;3.92;1.40;;;;;;;;;;5152365;27;20053;-91
2022/09/16 13:20:34;;;;;;;9.25;1.80;;;;;;;;;;5152834;27;20484;-88
2022/09/16 13:23:45;;;;;;;3.33;0.90;;;;;;;;;;5152347;27;20076;-90
2022/09/16 13:26:49;;;;;;;2.22;0.85;;;;;;;;;;5151348;27;20670;-91
2022/09/16 13:29:33;;;;;;;2.08;0.60;;;;;;;;;;5152327;27;20091;-88
2022/09/16 13:33:15;;;;;;;2.08;0.77;;;;;;;;;;5152351;27;20041;-88
2022/09/16 13:36:25;;;;;;;3.22;0.73;;;;;;;;;;5048042;28;20102;-91
2022/09/16 13:39:15;;;;;;;4.57;0.90;;;;;;;;;;5091752;27;20083;-88
2022/09/16 13:42:15;;;;;;;1.08;0.60;;;;;;;;;;5140022;27;20034;-89
2022/09/16 13:45:00;;;;;;;1.58;0.63;;;;;;;;;;5141366;27;20064;-87
2022/09/16 13:47:48;;;;;;;2.88;0.70;;;;;;;;;;5140546;27;20037;-90
2022/09/16 13:50:54;;;;;;;1.05;0.70;;;;;;;;;;5136084;27;20631;-91
2022/09/16 13:54:03;;;;;;;2.63;1.13;;;;;;;;;;5132260;27;20083;-92
2022/09/16 13:56:57;;;;;;;1.23;0.68;;;;;;;;;;5134758;27;20079;-90
2022/09/16 14:00:17;;;;;;;1.08;0.52;;;;;;;;;;5134830;27;20038;-92
2022/09/16 14:03:24;;;;;;;2.78;1.10;;;;;;;;;;5131822;27;20169;-89
2022/09/16 14:06:15;;;;;;;2.10;0.60;;;;;;;;;;5132116;27;20440;-85
2022/09/16 14:09:08;;;;;;;2.45;0.77;;;;;;;;;;5134947;27;20087;-87
2022/09/16 14:12:02;;;;;;;2.50;0.87;;;;;;;;;;5134834;27;20042;-87
2022/09/16 14:14:47;;;;;;;1.75;0.95;;;;;;;;;;5134051;27;20083;-87
2022/09/16 14:17:36;;;;;;;1.13;0.60;;;;;;;;;;5134426;27;20440;-87
2022/09/16 14:20:22;;;;;;;2.28;0.80;;;;;;;;;;5133350;27;20110;-87
2022/09/16 14:23:17;;;;;;;3.50;1.15;;;;;;;;;;5131049;27;20075;-90
2022/09/16 14:26:16;;;;;;;1.17;0.77;;;;;;;;;;5134926;27;20383;-93
2022/09/16 14:29:02;;;;;;;4.28;0.95;;;;;;;;;;5134941;27;20045;-92
2022/09/16 14:31:50;;;;;;;2.47;0.82;;;;;;;;;;5134796;27;20076;-93
2022/09/16 14:34:36;;;;;;;4.65;1.30;;;;;;;;;;5134062;27;20444;-92
2022/09/16 14:37:21;;;;;;;2.65;0.82;;;;;;;;;;5134232;27;20038;-93
2022/09/16 14:40:11;;;;;;;6.65;1.75;;;;;;;;;;5130664;27;20156;-93
2022/09/16 14:43:02;;;;;;;3.33;0.80;;;;;;;;;;5127792;27;20039;-92
2022/09/16 14:46:05;;;;;;;1.52;0.70;;;;;;;;;;5134705;27;20443;-92
2022/09/16 14:48:57;;;;;;;1.63;0.70;;;;;;;;;;5143990;27;20490;-92
2022/09/16 14:51:48;;;;;;;1.70;0.85;;;;;;;;;;5125541;27;20111;-91
2022/09/16 14:54:48;;;;;;;2.65;1.10;;;;;;;;;;5139289;27;20113;-92
2022/09/16 14:57:34;;;;;;;1.33;0.70;;;;;;;;;;5139988;27;20038;-89
2022/09/16 15:00:24;;;;;;;6.65;1.30;;;;;;;;;;5140256;27;20489;-91
2022/09/16 15:03:16;;;;;;;2.67;1.15;;;;;;;;;;5140487;27;20485;-92
2022/09/16 15:06:08;;;;;;;3.10;0.90;;;;;;;;;;5143026;27;20033;-92
2022/09/16 15:08:59;;;;;;;2.80;0.80;;;;;;;;;;5139926;27;20053;-90
2022/09/16 15:11:48;;;;;;;2.97;0.90;;;;;;;;;;5155370;27;20034;-95
2022/09/16 15:14:36;;;;;;;1.42;0.60;;;;;;;;;;5139716;27;20105;-91
2022/09/16 15:17:22;;;;;;;3.78;0.85;;;;;;;;;;5140092;27;20159;-92
2022/09/16 15:20:18;;;;;;;3.65;1.65;;;;;;;;;;5155989;27;20067;-90
2022/09/16 15:23:03;;;;;;;1.38;0.65;;;;;;;;;;5139907;27;20038;-90
2022/09/16 15:25:55;;;;;;;2.20;0.60;;;;;;;;;;5139343;27;20052;-92
2022/09/16 15:28:54;;;;;;;2.22;0.70;;;;;;;;;;5139234;27;20079;-91
2022/09/16 15:31:39;;;;;;;0.70;0.52;;;;;;;;;;5154727;27;20041;-89
2022/09/16 15:34:25;;;;;;;0.50;0.50;;;;;;;;;;5155491;27;20037;-90
2022/09/16 15:37:29;;;;;;;0.65;0.60;;;;;;;;;;5142868;27;20048;-89
2022/09/16 15:40:27;;;;;;;0.55;0.50;;;;;;;;;;5139578;27;20517;-90
2022/09/16 15:43:13;;;;;;;0.50;0.50;;;;;;;;;;5139374;27;20111;-90
2022/09/16 15:45:59;;;;;;;0.82;0.60;;;;;;;;;;5155280;27;20037;-89
2022/09/16 15:48:50;;;;;;;0.45;0.45;;;;;;;;;;5154245;27;20603;-90
2022/09/16 15:51:43;;;;;;;0.50;0.50;;;;;;;;;;5139040;27;20034;-89
2022/09/16 15:54:37;;;;;;;2.70;0.60;;;;;;;;;;5139382;27;20091;-93
2022/09/16 15:57:30;;;;;;;0.43;0.43;;;;;;;;;;5139469;27;20417;-90
2022/09/16 16:00:15;;;;;;;1.20;0.70;;;;;;;;;;5154888;27;20542;-93
2022/09/16 16:03:03;;;;;;;2.60;0.70;;;;;;;;;;5139070;27;20393;-90
2022/09/16 16:05:52;;;;;;;0.65;0.60;;;;;;;;;;5137467;27;20088;-92
2022/09/16 16:08:43;;;;;;;0.57;0.57;;;;;;;;;;5154022;27;20077;-91
2022/09/16 16:11:29;;;;;;;1.17;0.70;;;;;;;;;;5154923;27;20079;-90
2022/09/16 16:14:14;;;;;;;1.13;0.70;;;;;;;;;;5138828;27;20104;-84
2022/09/16 16:17:03;;;;;;;1.00;0.63;;;;;;;;;;5139017;27;20060;-90
2022/09/16 16:19:48;;;;;;;0.57;0.57;;;;;;;;;;5138369;27;20116;-90
2022/09/16 16:22:33;;;;;;;0.75;0.60;;;;;;;;;;5138468;27;20098;-87
2022/09/16 16:25:18;;;;;;;0.77;0.60;;;;;;;;;;5154668;27;20115;-88
2022/09/16 16:28:03;;;;;;;2.28;0.77;;;;;;;;;;5154260;27;20550;-89
2022/09/16 16:30:47;;;;;;;2.08;0.70;;;;;;;;;;5153870;27;20075;-90
2022/09/16 16:33:31;;;;;;;2.92;0.80;;;;;;;;;;5154257;27;20079;-90
2022/09/16 16:36:17;;;;;;;0.50;0.50;;;;;;;;;;5124061;27;20188;-91
2022/09/16 16:39:01;;;;;;;1.00;0.60;;;;;;;;;;5154441;27;20045;-87
2022/09/16 16:41:46;;;;;;;2.05;0.80;;;;;;;;;;5151750;27;20054;-88
2022/09/16 16:44:31;;;;;;;1.48;0.57;;;;;;;;;;5154227;27;20037;-86
2022/09/16 16:47:16;;;;;;;3.78;0.93;;;;;;;;;;5140105;27;20041;-88
2022/09/16 16:50:01;;;;;;;0.73;0.60;;;;;;;;;;5136417;27;20053;-86
2022/09/16 16:52:49;;;;;;;1.67;0.80;;;;;;;;;;5153521;27;20394;-88